sensor_id;sensor_type;location;lat;lon;timestamp;P1;durP1;ratioP1;P2;durP2;ratioP2
18720;SDS011;9489;50.948;3.114;2023-05-15T00:01:15;103.13;;;54.85;;
18720;SDS011;9489;50.948;3.114;2023-05-15T00:03:41;110.20;;;54.83;;
18720;SDS011;9489;50.948;3.114;2023-05-15T00:06:07;116.75;;;59.00;;
18720;SDS011;9489;50.948;3.114;2023-05-15T00:08:33;115.95;;;61.03;;
18720;SDS011;9489;50.948;3.114;2023-05-15T00:10:59;129.32;;;61.78;;
18720;SDS011;9489;50.948;3.114;2023-05-15T00:13:25;137.93;;;65.32;;
18720;SDS011;9489;50.948;3.114;2023-05-15T00:15:51;133.93;;;62.10;;
18720;SDS011;9489;50.948;3.114;2023-05-15T00:18:17;129.65;;;60.88;;
18720;SDS011;9489;50.948;3.114;2023-05-15T00:20:42;126.78;;;59.22;;
18720;SDS011;9489;50.948;3.114;2023-05-15T00:23:08;123.10;;;57.00;;
18720;SDS011;9489;50.948;3.114;2023-05-15T00:25:34;128.10;;;57.47;;
18720;SDS011;9489;50.948;3.114;2023-05-15T00:27:59;108.07;;;54.40;;
18720;SDS011;9489;50.948;3.114;2023-05-15T00:30:25;108.57;;;53.67;;
18720;SDS011;9489;50.948;3.114;2023-05-15T00:32:52;106.10;;;53.35;;
18720;SDS011;9489;50.948;3.114;2023-05-15T00:35:17;113.25;;;53.10;;
18720;SDS011;9489;50.948;3.114;2023-05-15T00:37:43;123.13;;;55.13;;
18720;SDS011;9489;50.948;3.114;2023-05-15T00:40:09;101.60;;;50.60;;
18720;SDS011;9489;50.948;3.114;2023-05-15T00:42:39;104.97;;;53.10;;
18720;SDS011;9489;50.948;3.114;2023-05-15T00:45:06;92.45;;;50.65;;
18720;SDS011;9489;50.948;3.114;2023-05-15T00:47:34;89.60;;;50.55;;
18720;SDS011;9489;50.948;3.114;2023-05-15T00:50:02;99.32;;;54.78;;
18720;SDS011;9489;50.948;3.114;2023-05-15T00:52:29;91.47;;;51.95;;
18720;SDS011;9489;50.948;3.114;2023-05-15T00:54:55;96.53;;;52.67;;
18720;SDS011;9489;50.948;3.114;2023-05-15T00:57:21;99.43;;;52.17;;
18720;SDS011;9489;50.948;3.114;2023-05-15T00:59:48;96.97;;;54.53;;
18720;SDS011;9489;50.948;3.114;2023-05-15T01:02:16;93.30;;;52.83;;
18720;SDS011;9489;50.948;3.114;2023-05-15T01:04:43;99.88;;;56.17;;
18720;SDS011;9489;50.948;3.114;2023-05-15T01:07:09;92.25;;;52.97;;
18720;SDS011;9489;50.948;3.114;2023-05-15T01:09:35;120.93;;;57.55;;
18720;SDS011;9489;50.948;3.114;2023-05-15T01:12:05;110.25;;;55.42;;
18720;SDS011;9489;50.948;3.114;2023-05-15T01:14:33;108.00;;;58.00;;
18720;SDS011;9489;50.948;3.114;2023-05-15T01:16:58;112.75;;;57.78;;
18720;SDS011;9489;50.948;3.114;2023-05-15T01:19:24;105.13;;;55.70;;
18720;SDS011;9489;50.948;3.114;2023-05-15T01:22:03;98.13;;;54.65;;
18720;SDS011;9489;50.948;3.114;2023-05-15T01:27:56;105.70;;;54.72;;
18720;SDS011;9489;50.948;3.114;2023-05-15T01:30:28;112.47;;;57.50;;
18720;SDS011;9489;50.948;3.114;2023-05-15T01:33:02;107.35;;;57.15;;
18720;SDS011;9489;50.948;3.114;2023-05-15T01:35:33;134.90;;;62.40;;
18720;SDS011;9489;50.948;3.114;2023-05-15T01:38:29;134.68;;;61.35;;
18720;SDS011;9489;50.948;3.114;2023-05-15T01:41:03;137.02;;;61.90;;
18720;SDS011;9489;50.948;3.114;2023-05-15T01:43:41;156.20;;;63.40;;
18720;SDS011;9489;50.948;3.114;2023-05-15T01:46:11;154.63;;;64.40;;
18720;SDS011;9489;50.948;3.114;2023-05-15T01:48:41;160.15;;;64.90;;
18720;SDS011;9489;50.948;3.114;2023-05-15T01:51:09;159.75;;;63.08;;
18720;SDS011;9489;50.948;3.114;2023-05-15T01:53:37;154.75;;;62.22;;
18720;SDS011;9489;50.948;3.114;2023-05-15T01:56:05;172.75;;;66.53;;
18720;SDS011;9489;50.948;3.114;2023-05-15T01:58:33;168.88;;;63.42;;
18720;SDS011;9489;50.948;3.114;2023-05-15T02:01:01;162.43;;;63.42;;
18720;SDS011;9489;50.948;3.114;2023-05-15T02:03:29;162.48;;;62.03;;
18720;SDS011;9489;50.948;3.114;2023-05-15T02:05:58;168.60;;;63.65;;
18720;SDS011;9489;50.948;3.114;2023-05-15T02:08:26;157.93;;;63.72;;
18720;SDS011;9489;50.948;3.114;2023-05-15T02:10:55;140.95;;;59.33;;
18720;SDS011;9489;50.948;3.114;2023-05-15T02:13:23;135.82;;;61.17;;
18720;SDS011;9489;50.948;3.114;2023-05-15T02:15:50;119.43;;;56.47;;
18720;SDS011;9489;50.948;3.114;2023-05-15T02:18:17;110.72;;;59.33;;
18720;SDS011;9489;50.948;3.114;2023-05-15T02:20:42;105.75;;;58.72;;
18720;SDS011;9489;50.948;3.114;2023-05-15T02:23:08;108.57;;;58.50;;
18720;SDS011;9489;50.948;3.114;2023-05-15T02:31:33;108.90;;;59.92;;
18720;SDS011;9489;50.948;3.114;2023-05-15T02:37:00;91.53;;;58.10;;
18720;SDS011;9489;50.948;3.114;2023-05-15T02:39:28;85.80;;;55.88;;
18720;SDS011;9489;50.948;3.114;2023-05-15T02:41:56;91.13;;;59.58;;
18720;SDS011;9489;50.948;3.114;2023-05-15T02:44:23;88.90;;;57.88;;
18720;SDS011;9489;50.948;3.114;2023-05-15T02:46:50;88.00;;;57.72;;
18720;SDS011;9489;50.948;3.114;2023-05-15T02:49:17;87.47;;;59.83;;
18720;SDS011;9489;50.948;3.114;2023-05-15T02:51:44;86.90;;;57.78;;
18720;SDS011;9489;50.948;3.114;2023-05-15T02:54:10;91.20;;;59.08;;
18720;SDS011;9489;50.948;3.114;2023-05-15T02:56:36;91.32;;;61.25;;
18720;SDS011;9489;50.948;3.114;2023-05-15T02:59:02;84.38;;;57.15;;
18720;SDS011;9489;50.948;3.114;2023-05-15T03:01:28;86.45;;;57.45;;
18720;SDS011;9489;50.948;3.114;2023-05-15T03:03:53;87.90;;;59.15;;
18720;SDS011;9489;50.948;3.114;2023-05-15T03:06:19;85.72;;;55.80;;
18720;SDS011;9489;50.948;3.114;2023-05-15T03:08:44;82.22;;;56.75;;
18720;SDS011;9489;50.948;3.114;2023-05-15T03:11:10;91.15;;;58.83;;
18720;SDS011;9489;50.948;3.114;2023-05-15T03:13:36;83.10;;;57.40;;
18720;SDS011;9489;50.948;3.114;2023-05-15T03:16:01;89.50;;;60.13;;
18720;SDS011;9489;50.948;3.114;2023-05-15T03:18:27;90.10;;;60.42;;
18720;SDS011;9489;50.948;3.114;2023-05-15T03:20:53;88.75;;;58.08;;
18720;SDS011;9489;50.948;3.114;2023-05-15T03:23:19;90.10;;;60.95;;
18720;SDS011;9489;50.948;3.114;2023-05-15T03:25:44;82.68;;;59.13;;
18720;SDS011;9489;50.948;3.114;2023-05-15T03:28:10;86.82;;;60.35;;
18720;SDS011;9489;50.948;3.114;2023-05-15T03:30:36;81.38;;;59.83;;
18720;SDS011;9489;50.948;3.114;2023-05-15T03:33:01;82.38;;;57.95;;
18720;SDS011;9489;50.948;3.114;2023-05-15T03:35:30;79.63;;;56.75;;
18720;SDS011;9489;50.948;3.114;2023-05-15T03:38:00;78.78;;;54.85;;
18720;SDS011;9489;50.948;3.114;2023-05-15T03:40:25;79.20;;;57.22;;
18720;SDS011;9489;50.948;3.114;2023-05-15T03:42:51;86.70;;;59.20;;
18720;SDS011;9489;50.948;3.114;2023-05-15T03:45:17;86.30;;;59.97;;
18720;SDS011;9489;50.948;3.114;2023-05-15T03:47:44;80.35;;;55.03;;
18720;SDS011;9489;50.948;3.114;2023-05-15T03:50:10;74.45;;;53.20;;
18720;SDS011;9489;50.948;3.114;2023-05-15T03:52:35;75.03;;;52.17;;
18720;SDS011;9489;50.948;3.114;2023-05-15T03:55:01;77.57;;;52.33;;
18720;SDS011;9489;50.948;3.114;2023-05-15T03:57:27;66.03;;;49.28;;
18720;SDS011;9489;50.948;3.114;2023-05-15T03:59:53;68.55;;;49.35;;
18720;SDS011;9489;50.948;3.114;2023-05-15T04:02:18;69.53;;;49.10;;
18720;SDS011;9489;50.948;3.114;2023-05-15T04:04:44;71.78;;;51.00;;
18720;SDS011;9489;50.948;3.114;2023-05-15T04:07:09;71.28;;;49.42;;
18720;SDS011;9489;50.948;3.114;2023-05-15T04:09:35;69.75;;;50.58;;
18720;SDS011;9489;50.948;3.114;2023-05-15T04:12:01;67.85;;;48.58;;
18720;SDS011;9489;50.948;3.114;2023-05-15T04:14:27;67.45;;;49.20;;
18720;SDS011;9489;50.948;3.114;2023-05-15T04:16:52;71.00;;;51.42;;
18720;SDS011;9489;50.948;3.114;2023-05-15T04:19:18;71.72;;;47.92;;
18720;SDS011;9489;50.948;3.114;2023-05-15T04:21:43;69.75;;;49.97;;
18720;SDS011;9489;50.948;3.114;2023-05-15T04:24:09;64.95;;;48.20;;
18720;SDS011;9489;50.948;3.114;2023-05-15T04:26:35;66.07;;;48.42;;
18720;SDS011;9489;50.948;3.114;2023-05-15T04:29:01;73.47;;;49.65;;
18720;SDS011;9489;50.948;3.114;2023-05-15T04:31:27;74.15;;;49.55;;
18720;SDS011;9489;50.948;3.114;2023-05-15T04:33:53;68.53;;;47.67;;
18720;SDS011;9489;50.948;3.114;2023-05-15T04:36:18;67.47;;;49.88;;
18720;SDS011;9489;50.948;3.114;2023-05-15T04:38:45;75.40;;;50.97;;
18720;SDS011;9489;50.948;3.114;2023-05-15T04:41:10;68.63;;;48.28;;
18720;SDS011;9489;50.948;3.114;2023-05-15T04:43:36;73.90;;;48.20;;
18720;SDS011;9489;50.948;3.114;2023-05-15T04:46:01;79.03;;;49.72;;
18720;SDS011;9489;50.948;3.114;2023-05-15T04:48:27;73.93;;;49.13;;
18720;SDS011;9489;50.948;3.114;2023-05-15T04:50:53;67.78;;;46.63;;
18720;SDS011;9489;50.948;3.114;2023-05-15T04:53:18;76.72;;;49.85;;
18720;SDS011;9489;50.948;3.114;2023-05-15T04:55:44;67.07;;;48.00;;
18720;SDS011;9489;50.948;3.114;2023-05-15T04:58:10;67.18;;;46.05;;
18720;SDS011;9489;50.948;3.114;2023-05-15T05:00:35;68.40;;;46.33;;
18720;SDS011;9489;50.948;3.114;2023-05-15T05:03:01;73.50;;;48.65;;
18720;SDS011;9489;50.948;3.114;2023-05-15T05:05:27;71.05;;;46.90;;
18720;SDS011;9489;50.948;3.114;2023-05-15T05:07:52;69.97;;;46.30;;
18720;SDS011;9489;50.948;3.114;2023-05-15T05:10:18;80.35;;;49.30;;
18720;SDS011;9489;50.948;3.114;2023-05-15T05:12:43;81.43;;;50.78;;
18720;SDS011;9489;50.948;3.114;2023-05-15T05:15:09;75.43;;;49.17;;
18720;SDS011;9489;50.948;3.114;2023-05-15T05:17:35;75.55;;;48.92;;
18720;SDS011;9489;50.948;3.114;2023-05-15T05:20:01;71.18;;;47.22;;
18720;SDS011;9489;50.948;3.114;2023-05-15T05:22:26;74.43;;;49.75;;
18720;SDS011;9489;50.948;3.114;2023-05-15T05:24:52;85.03;;;53.22;;
18720;SDS011;9489;50.948;3.114;2023-05-15T05:27:18;82.57;;;52.28;;
18720;SDS011;9489;50.948;3.114;2023-05-15T05:29:43;77.80;;;51.83;;
18720;SDS011;9489;50.948;3.114;2023-05-15T05:32:10;80.03;;;51.17;;
18720;SDS011;9489;50.948;3.114;2023-05-15T05:34:36;81.00;;;48.90;;
18720;SDS011;9489;50.948;3.114;2023-05-15T05:37:02;80.45;;;50.00;;
18720;SDS011;9489;50.948;3.114;2023-05-15T05:39:28;79.50;;;50.28;;
18720;SDS011;9489;50.948;3.114;2023-05-15T05:41:53;82.38;;;51.40;;
18720;SDS011;9489;50.948;3.114;2023-05-15T05:44:19;85.88;;;52.97;;
18720;SDS011;9489;50.948;3.114;2023-05-15T05:46:44;77.80;;;48.72;;
18720;SDS011;9489;50.948;3.114;2023-05-15T05:49:10;88.30;;;51.72;;
18720;SDS011;9489;50.948;3.114;2023-05-15T05:51:36;85.68;;;50.75;;
18720;SDS011;9489;50.948;3.114;2023-05-15T05:54:02;75.10;;;47.47;;
18720;SDS011;9489;50.948;3.114;2023-05-15T05:56:28;84.70;;;51.53;;
18720;SDS011;9489;50.948;3.114;2023-05-15T05:58:54;85.43;;;53.58;;
18720;SDS011;9489;50.948;3.114;2023-05-15T06:01:20;80.90;;;51.35;;
18720;SDS011;9489;50.948;3.114;2023-05-15T06:03:46;78.13;;;50.22;;
18720;SDS011;9489;50.948;3.114;2023-05-15T06:06:12;92.22;;;53.55;;
18720;SDS011;9489;50.948;3.114;2023-05-15T06:08:38;79.22;;;49.95;;
18720;SDS011;9489;50.948;3.114;2023-05-15T06:11:03;81.43;;;52.15;;
18720;SDS011;9489;50.948;3.114;2023-05-15T06:13:29;90.78;;;53.22;;
18720;SDS011;9489;50.948;3.114;2023-05-15T06:15:55;88.55;;;52.20;;
18720;SDS011;9489;50.948;3.114;2023-05-15T06:18:20;88.13;;;52.28;;
18720;SDS011;9489;50.948;3.114;2023-05-15T06:20:46;82.88;;;51.75;;
18720;SDS011;9489;50.948;3.114;2023-05-15T06:23:12;73.97;;;44.42;;
18720;SDS011;9489;50.948;3.114;2023-05-15T06:25:37;73.05;;;45.10;;
18720;SDS011;9489;50.948;3.114;2023-05-15T06:28:03;71.38;;;42.97;;
18720;SDS011;9489;50.948;3.114;2023-05-15T06:30:29;71.15;;;44.75;;
18720;SDS011;9489;50.948;3.114;2023-05-15T06:32:55;74.80;;;45.22;;
18720;SDS011;9489;50.948;3.114;2023-05-15T06:35:20;82.05;;;46.88;;
18720;SDS011;9489;50.948;3.114;2023-05-15T06:37:48;87.18;;;48.72;;
18720;SDS011;9489;50.948;3.114;2023-05-15T06:40:14;76.93;;;48.13;;
18720;SDS011;9489;50.948;3.114;2023-05-15T06:42:40;73.25;;;44.55;;
18720;SDS011;9489;50.948;3.114;2023-05-15T06:45:06;75.47;;;45.80;;
18720;SDS011;9489;50.948;3.114;2023-05-15T06:47:32;80.55;;;48.63;;
18720;SDS011;9489;50.948;3.114;2023-05-15T06:49:58;79.78;;;50.33;;
18720;SDS011;9489;50.948;3.114;2023-05-15T06:52:23;79.35;;;47.15;;
18720;SDS011;9489;50.948;3.114;2023-05-15T06:54:49;83.55;;;48.70;;
18720;SDS011;9489;50.948;3.114;2023-05-15T06:57:15;84.65;;;48.38;;
18720;SDS011;9489;50.948;3.114;2023-05-15T06:59:41;87.47;;;50.03;;
18720;SDS011;9489;50.948;3.114;2023-05-15T07:02:07;86.65;;;52.05;;
18720;SDS011;9489;50.948;3.114;2023-05-15T07:04:33;96.28;;;52.40;;
18720;SDS011;9489;50.948;3.114;2023-05-15T07:06:58;86.18;;;49.53;;
18720;SDS011;9489;50.948;3.114;2023-05-15T07:09:24;86.35;;;48.63;;
18720;SDS011;9489;50.948;3.114;2023-05-15T07:11:50;91.00;;;50.78;;
18720;SDS011;9489;50.948;3.114;2023-05-15T07:14:16;86.47;;;48.10;;
18720;SDS011;9489;50.948;3.114;2023-05-15T07:16:41;79.65;;;48.30;;
18720;SDS011;9489;50.948;3.114;2023-05-15T07:19:07;84.75;;;49.63;;
18720;SDS011;9489;50.948;3.114;2023-05-15T07:21:33;80.88;;;48.13;;
18720;SDS011;9489;50.948;3.114;2023-05-15T07:23:59;81.00;;;50.05;;
18720;SDS011;9489;50.948;3.114;2023-05-15T07:26:25;89.72;;;49.47;;
18720;SDS011;9489;50.948;3.114;2023-05-15T07:28:50;91.80;;;50.72;;
18720;SDS011;9489;50.948;3.114;2023-05-15T07:31:16;89.22;;;50.95;;
18720;SDS011;9489;50.948;3.114;2023-05-15T07:33:42;93.43;;;50.50;;
18720;SDS011;9489;50.948;3.114;2023-05-15T07:36:07;94.97;;;49.92;;
18720;SDS011;9489;50.948;3.114;2023-05-15T07:38:33;106.00;;;54.10;;
18720;SDS011;9489;50.948;3.114;2023-05-15T07:40:59;102.68;;;53.00;;
18720;SDS011;9489;50.948;3.114;2023-05-15T07:43:24;103.40;;;55.85;;
18720;SDS011;9489;50.948;3.114;2023-05-15T07:45:50;110.50;;;56.75;;
18720;SDS011;9489;50.948;3.114;2023-05-15T07:48:16;106.40;;;54.30;;
18720;SDS011;9489;50.948;3.114;2023-05-15T07:50:43;101.13;;;54.72;;
18720;SDS011;9489;50.948;3.114;2023-05-15T07:53:11;101.45;;;53.92;;
18720;SDS011;9489;50.948;3.114;2023-05-15T07:55:43;105.45;;;55.03;;
18720;SDS011;9489;50.948;3.114;2023-05-15T07:58:09;100.85;;;56.78;;
18720;SDS011;9489;50.948;3.114;2023-05-15T08:00:35;105.95;;;54.17;;
18720;SDS011;9489;50.948;3.114;2023-05-15T08:03:02;99.78;;;52.72;;
18720;SDS011;9489;50.948;3.114;2023-05-15T08:05:28;96.53;;;51.88;;
18720;SDS011;9489;50.948;3.114;2023-05-15T08:07:54;111.03;;;52.33;;
18720;SDS011;9489;50.948;3.114;2023-05-15T08:10:20;91.32;;;49.53;;
18720;SDS011;9489;50.948;3.114;2023-05-15T08:12:46;121.63;;;53.35;;
18720;SDS011;9489;50.948;3.114;2023-05-15T08:15:12;103.30;;;52.42;;
18720;SDS011;9489;50.948;3.114;2023-05-15T08:17:38;100.47;;;48.75;;
18720;SDS011;9489;50.948;3.114;2023-05-15T08:20:05;103.93;;;49.78;;
18720;SDS011;9489;50.948;3.114;2023-05-15T08:22:31;103.00;;;48.63;;
18720;SDS011;9489;50.948;3.114;2023-05-15T08:24:57;97.10;;;48.42;;
18720;SDS011;9489;50.948;3.114;2023-05-15T08:27:24;95.45;;;47.88;;
18720;SDS011;9489;50.948;3.114;2023-05-15T08:29:49;99.20;;;48.20;;
18720;SDS011;9489;50.948;3.114;2023-05-15T08:32:16;86.38;;;44.72;;
18720;SDS011;9489;50.948;3.114;2023-05-15T08:34:42;87.43;;;45.40;;
18720;SDS011;9489;50.948;3.114;2023-05-15T08:37:08;85.65;;;42.80;;
18720;SDS011;9489;50.948;3.114;2023-05-15T08:39:34;88.22;;;45.17;;
18720;SDS011;9489;50.948;3.114;2023-05-15T08:44:59;90.47;;;44.47;;
18720;SDS011;9489;50.948;3.114;2023-05-15T08:47:28;81.40;;;42.05;;
18720;SDS011;9489;50.948;3.114;2023-05-15T08:50:08;83.47;;;45.10;;
18720;SDS011;9489;50.948;3.114;2023-05-15T08:52:39;79.55;;;42.95;;
18720;SDS011;9489;50.948;3.114;2023-05-15T08:55:07;80.00;;;43.15;;
18720;SDS011;9489;50.948;3.114;2023-05-15T08:57:34;83.20;;;44.00;;
18720;SDS011;9489;50.948;3.114;2023-05-15T09:00:02;83.50;;;44.35;;
18720;SDS011;9489;50.948;3.114;2023-05-15T09:02:33;72.78;;;37.35;;
18720;SDS011;9489;50.948;3.114;2023-05-15T09:05:00;67.22;;;39.40;;
18720;SDS011;9489;50.948;3.114;2023-05-15T09:07:27;78.68;;;41.35;;
18720;SDS011;9489;50.948;3.114;2023-05-15T09:09:54;89.72;;;44.03;;
18720;SDS011;9489;50.948;3.114;2023-05-15T09:12:21;79.25;;;39.97;;
18720;SDS011;9489;50.948;3.114;2023-05-15T09:14:48;72.82;;;40.00;;
18720;SDS011;9489;50.948;3.114;2023-05-15T09:17:14;76.90;;;39.42;;
18720;SDS011;9489;50.948;3.114;2023-05-15T09:19:40;74.60;;;39.40;;
18720;SDS011;9489;50.948;3.114;2023-05-15T09:22:16;68.22;;;36.95;;
18720;SDS011;9489;50.948;3.114;2023-05-15T09:24:47;72.50;;;36.13;;
18720;SDS011;9489;50.948;3.114;2023-05-15T09:27:22;70.95;;;37.55;;
18720;SDS011;9489;50.948;3.114;2023-05-15T09:29:48;68.85;;;37.60;;
18720;SDS011;9489;50.948;3.114;2023-05-15T09:32:18;56.25;;;33.72;;
18720;SDS011;9489;50.948;3.114;2023-05-15T09:34:44;53.47;;;32.85;;
18720;SDS011;9489;50.948;3.114;2023-05-15T09:37:12;54.75;;;32.40;;
18720;SDS011;9489;50.948;3.114;2023-05-15T09:39:55;62.95;;;32.60;;
18720;SDS011;9489;50.948;3.114;2023-05-15T09:42:33;51.78;;;29.70;;
18720;SDS011;9489;50.948;3.114;2023-05-15T09:45:00;49.75;;;27.70;;
18720;SDS011;9489;50.948;3.114;2023-05-15T09:47:26;48.30;;;29.08;;
18720;SDS011;9489;50.948;3.114;2023-05-15T09:49:52;49.67;;;30.58;;
18720;SDS011;9489;50.948;3.114;2023-05-15T09:52:18;50.03;;;29.85;;
18720;SDS011;9489;50.948;3.114;2023-05-15T09:54:44;43.95;;;27.67;;
18720;SDS011;9489;50.948;3.114;2023-05-15T09:57:12;41.45;;;26.35;;
18720;SDS011;9489;50.948;3.114;2023-05-15T09:59:42;40.50;;;26.77;;
18720;SDS011;9489;50.948;3.114;2023-05-15T10:02:12;33.38;;;23.75;;
18720;SDS011;9489;50.948;3.114;2023-05-15T10:04:39;33.10;;;22.98;;
18720;SDS011;9489;50.948;3.114;2023-05-15T10:07:06;31.63;;;21.65;;
18720;SDS011;9489;50.948;3.114;2023-05-15T10:09:32;34.03;;;21.63;;
18720;SDS011;9489;50.948;3.114;2023-05-15T10:11:58;32.08;;;22.90;;
18720;SDS011;9489;50.948;3.114;2023-05-15T10:14:23;39.53;;;23.63;;
18720;SDS011;9489;50.948;3.114;2023-05-15T10:16:51;31.95;;;21.27;;
18720;SDS011;9489;50.948;3.114;2023-05-15T10:19:21;29.52;;;21.45;;
18720;SDS011;9489;50.948;3.114;2023-05-15T10:21:49;29.73;;;20.33;;
18720;SDS011;9489;50.948;3.114;2023-05-15T10:24:16;30.00;;;20.80;;
18720;SDS011;9489;50.948;3.114;2023-05-15T10:26:44;26.23;;;20.33;;
18720;SDS011;9489;50.948;3.114;2023-05-15T10:29:12;27.52;;;19.45;;
18720;SDS011;9489;50.948;3.114;2023-05-15T10:31:41;18.67;;;14.90;;
18720;SDS011;9489;50.948;3.114;2023-05-15T10:34:07;13.23;;;8.82;;
18720;SDS011;9489;50.948;3.114;2023-05-15T10:36:35;9.27;;;6.20;;
18720;SDS011;9489;50.948;3.114;2023-05-15T10:39:02;9.68;;;4.63;;
18720;SDS011;9489;50.948;3.114;2023-05-15T10:41:30;6.55;;;4.95;;
18720;SDS011;9489;50.948;3.114;2023-05-15T10:44:00;5.88;;;3.90;;
18720;SDS011;9489;50.948;3.114;2023-05-15T10:46:29;8.27;;;5.00;;
18720;SDS011;9489;50.948;3.114;2023-05-15T10:48:57;10.85;;;5.53;;
18720;SDS011;9489;50.948;3.114;2023-05-15T10:51:26;8.32;;;5.15;;
18720;SDS011;9489;50.948;3.114;2023-05-15T10:53:54;10.13;;;5.85;;
18720;SDS011;9489;50.948;3.114;2023-05-15T10:56:24;10.57;;;5.45;;
18720;SDS011;9489;50.948;3.114;2023-05-15T10:58:51;7.38;;;5.05;;
18720;SDS011;9489;50.948;3.114;2023-05-15T11:01:28;6.00;;;4.00;;
18720;SDS011;9489;50.948;3.114;2023-05-15T11:06:34;5.82;;;4.97;;
18720;SDS011;9489;50.948;3.114;2023-05-15T11:11:52;4.38;;;3.60;;
18720;SDS011;9489;50.948;3.114;2023-05-15T11:17:21;8.70;;;3.75;;
18720;SDS011;9489;50.948;3.114;2023-05-15T11:24:49;4.45;;;3.35;;
18720;SDS011;9489;50.948;3.114;2023-05-15T11:27:17;6.60;;;3.63;;
18720;SDS011;9489;50.948;3.114;2023-05-15T11:37:48;6.20;;;3.80;;
18720;SDS011;9489;50.948;3.114;2023-05-15T11:42:58;9.75;;;4.22;;
18720;SDS011;9489;50.948;3.114;2023-05-15T11:45:26;8.77;;;3.90;;
18720;SDS011;9489;50.948;3.114;2023-05-15T11:47:54;8.93;;;4.25;;
18720;SDS011;9489;50.948;3.114;2023-05-15T11:50:20;10.82;;;4.80;;
18720;SDS011;9489;50.948;3.114;2023-05-15T11:52:47;9.50;;;4.35;;
18720;SDS011;9489;50.948;3.114;2023-05-15T11:55:14;10.68;;;5.20;;
18720;SDS011;9489;50.948;3.114;2023-05-15T11:57:42;10.60;;;5.10;;
18720;SDS011;9489;50.948;3.114;2023-05-15T12:00:10;8.07;;;4.95;;
18720;SDS011;9489;50.948;3.114;2023-05-15T12:02:36;9.35;;;5.50;;
18720;SDS011;9489;50.948;3.114;2023-05-15T12:05:05;11.65;;;4.78;;
18720;SDS011;9489;50.948;3.114;2023-05-15T12:07:34;9.07;;;4.32;;
18720;SDS011;9489;50.948;3.114;2023-05-15T12:10:02;12.27;;;3.83;;
18720;SDS011;9489;50.948;3.114;2023-05-15T12:12:27;6.45;;;3.40;;
18720;SDS011;9489;50.948;3.114;2023-05-15T12:14:56;8.55;;;3.45;;
18720;SDS011;9489;50.948;3.114;2023-05-15T12:17:23;10.48;;;4.05;;
18720;SDS011;9489;50.948;3.114;2023-05-15T12:19:49;9.23;;;3.63;;
18720;SDS011;9489;50.948;3.114;2023-05-15T12:22:16;10.68;;;3.83;;
18720;SDS011;9489;50.948;3.114;2023-05-15T12:24:43;12.02;;;4.00;;
18720;SDS011;9489;50.948;3.114;2023-05-15T12:27:09;9.77;;;4.53;;
18720;SDS011;9489;50.948;3.114;2023-05-15T12:29:36;14.02;;;4.45;;
18720;SDS011;9489;50.948;3.114;2023-05-15T12:32:03;14.48;;;4.75;;
18720;SDS011;9489;50.948;3.114;2023-05-15T12:34:29;12.75;;;6.45;;
18720;SDS011;9489;50.948;3.114;2023-05-15T12:36:55;13.15;;;4.82;;
18720;SDS011;9489;50.948;3.114;2023-05-15T12:39:23;12.73;;;4.93;;
18720;SDS011;9489;50.948;3.114;2023-05-15T12:41:50;11.63;;;4.13;;
18720;SDS011;9489;50.948;3.114;2023-05-15T12:44:18;7.68;;;3.88;;
18720;SDS011;9489;50.948;3.114;2023-05-15T12:46:45;8.00;;;3.72;;
18720;SDS011;9489;50.948;3.114;2023-05-15T12:49:11;8.55;;;3.67;;
18720;SDS011;9489;50.948;3.114;2023-05-15T12:51:43;8.88;;;3.92;;
18720;SDS011;9489;50.948;3.114;2023-05-15T12:54:18;8.63;;;4.00;;
18720;SDS011;9489;50.948;3.114;2023-05-15T12:56:45;10.55;;;3.67;;
18720;SDS011;9489;50.948;3.114;2023-05-15T12:59:14;9.13;;;4.40;;
18720;SDS011;9489;50.948;3.114;2023-05-15T13:01:40;9.82;;;3.92;;
18720;SDS011;9489;50.948;3.114;2023-05-15T13:04:08;8.43;;;4.00;;
18720;SDS011;9489;50.948;3.114;2023-05-15T13:06:36;10.20;;;4.30;;
18720;SDS011;9489;50.948;3.114;2023-05-15T13:09:03;9.02;;;4.13;;
18720;SDS011;9489;50.948;3.114;2023-05-15T13:11:29;7.70;;;5.00;;
18720;SDS011;9489;50.948;3.114;2023-05-15T13:13:58;12.38;;;4.90;;
18720;SDS011;9489;50.948;3.114;2023-05-15T13:16:25;11.38;;;5.20;;
18720;SDS011;9489;50.948;3.114;2023-05-15T13:18:53;10.10;;;4.50;;
18720;SDS011;9489;50.948;3.114;2023-05-15T13:21:22;11.80;;;5.03;;
18720;SDS011;9489;50.948;3.114;2023-05-15T13:23:48;13.65;;;5.90;;
18720;SDS011;9489;50.948;3.114;2023-05-15T13:26:14;10.77;;;4.57;;
18720;SDS011;9489;50.948;3.114;2023-05-15T13:28:40;11.77;;;5.57;;
18720;SDS011;9489;50.948;3.114;2023-05-15T13:31:05;11.15;;;5.25;;
18720;SDS011;9489;50.948;3.114;2023-05-15T13:33:31;10.52;;;5.25;;
18720;SDS011;9489;50.948;3.114;2023-05-15T13:35:58;11.63;;;4.75;;
18720;SDS011;9489;50.948;3.114;2023-05-15T13:38:23;9.23;;;4.20;;
18720;SDS011;9489;50.948;3.114;2023-05-15T13:40:49;9.05;;;4.97;;
18720;SDS011;9489;50.948;3.114;2023-05-15T13:43:15;11.43;;;5.43;;
18720;SDS011;9489;50.948;3.114;2023-05-15T13:45:41;14.45;;;5.53;;
18720;SDS011;9489;50.948;3.114;2023-05-15T13:48:06;12.20;;;6.10;;
18720;SDS011;9489;50.948;3.114;2023-05-15T13:50:32;10.10;;;5.60;;
18720;SDS011;9489;50.948;3.114;2023-05-15T13:52:58;12.65;;;5.45;;
18720;SDS011;9489;50.948;3.114;2023-05-15T13:55:23;11.07;;;5.00;;
18720;SDS011;9489;50.948;3.114;2023-05-15T13:57:50;10.38;;;4.43;;
18720;SDS011;9489;50.948;3.114;2023-05-15T14:00:16;8.38;;;4.80;;
18720;SDS011;9489;50.948;3.114;2023-05-15T14:02:43;13.27;;;5.70;;
18720;SDS011;9489;50.948;3.114;2023-05-15T14:05:12;10.55;;;4.57;;
18720;SDS011;9489;50.948;3.114;2023-05-15T14:07:38;9.45;;;4.40;;
18720;SDS011;9489;50.948;3.114;2023-05-15T14:10:05;8.82;;;4.93;;
18720;SDS011;9489;50.948;3.114;2023-05-15T14:12:31;8.73;;;4.47;;
18720;SDS011;9489;50.948;3.114;2023-05-15T14:14:57;8.95;;;4.40;;
18720;SDS011;9489;50.948;3.114;2023-05-15T14:17:23;10.25;;;4.65;;
18720;SDS011;9489;50.948;3.114;2023-05-15T14:19:49;9.05;;;4.47;;
18720;SDS011;9489;50.948;3.114;2023-05-15T14:22:15;9.88;;;5.55;;
18720;SDS011;9489;50.948;3.114;2023-05-15T14:24:41;9.13;;;4.95;;
18720;SDS011;9489;50.948;3.114;2023-05-15T14:27:06;12.30;;;5.65;;
18720;SDS011;9489;50.948;3.114;2023-05-15T14:29:32;10.90;;;4.53;;
18720;SDS011;9489;50.948;3.114;2023-05-15T14:31:58;9.57;;;4.47;;
18720;SDS011;9489;50.948;3.114;2023-05-15T14:34:24;10.43;;;4.70;;
18720;SDS011;9489;50.948;3.114;2023-05-15T14:36:50;8.68;;;4.22;;
18720;SDS011;9489;50.948;3.114;2023-05-15T14:39:16;12.80;;;4.53;;
18720;SDS011;9489;50.948;3.114;2023-05-15T14:41:42;13.02;;;5.30;;
18720;SDS011;9489;50.948;3.114;2023-05-15T14:44:08;10.68;;;4.57;;
18720;SDS011;9489;50.948;3.114;2023-05-15T14:46:34;9.50;;;4.50;;
18720;SDS011;9489;50.948;3.114;2023-05-15T14:49:03;11.85;;;4.57;;
18720;SDS011;9489;50.948;3.114;2023-05-15T14:51:29;8.98;;;4.18;;
18720;SDS011;9489;50.948;3.114;2023-05-15T14:53:55;12.70;;;4.43;;
18720;SDS011;9489;50.948;3.114;2023-05-15T14:56:21;11.82;;;4.50;;
18720;SDS011;9489;50.948;3.114;2023-05-15T14:58:47;9.23;;;3.78;;
18720;SDS011;9489;50.948;3.114;2023-05-15T15:01:14;9.52;;;3.97;;
18720;SDS011;9489;50.948;3.114;2023-05-15T15:03:40;9.38;;;3.63;;
18720;SDS011;9489;50.948;3.114;2023-05-15T15:06:08;10.50;;;4.43;;
18720;SDS011;9489;50.948;3.114;2023-05-15T15:08:34;7.57;;;3.90;;
18720;SDS011;9489;50.948;3.114;2023-05-15T15:11:00;9.30;;;3.88;;
18720;SDS011;9489;50.948;3.114;2023-05-15T15:13:26;10.75;;;3.95;;
18720;SDS011;9489;50.948;3.114;2023-05-15T15:15:53;8.10;;;3.40;;